Mississippi Star — 9HA2441 — position and weather

sailwx.info

Track history (hours):
 
Tides and Currents Weather Stations Pressure Air Temp Water Temp Dewpoint Dewpoint Depression Visibility Wind Speed Wind Dir Waves Ship Positions

Mississippi Star

Last reported at 2014-Oct-20 20:33 UTC. Time now 2014-Oct-20 21:16 UTC.
Position N 58°48' E 010°33'.

Length 128 m; draft 5.8 m.

Type: Ship. MMSI: 248621000.

Date/timePositionNaut miles runAvg speedWind from/ knotsBaromVisibWave heightAir tempDewpointWater temp
2014-Oct-20 20:33N 58°48' E 010°33'1211.8
2014-Oct-20 19:33N 58°60' E 010°35'1110.5
2014-Oct-20 18:33N 59°10' E 010°37'10 9.8
2014-Oct-20 17:33N 59°20' E 010°31'0 0.0
2014-Oct-20 16:33N 59°20' E 010°31'0 0.0
2014-Oct-20 15:33N 59°20' E 010°31'0 0.0
2014-Oct-20 14:30N 59°20' E 010°31'0 0.0
2014-Oct-20 13:33N 59°20' E 010°31'0 0.0
2014-Oct-20 04:33N 59°20' E 010°31'0 0.0
2014-Oct-20 03:30N 59°20' E 010°31'0 0.0
2014-Oct-20 02:33N 59°20' E 010°31'0 0.0
2014-Oct-20 01:30N 59°20' E 010°31'0 0.0
2014-Oct-20 00:33N 59°20' E 010°31'0 0.0
2014-Oct-19 23:22N 59°20' E 010°31'1 0.8
2014-Oct-19 22:32N 59°20' E 010°31'0 0.0
2014-Oct-19 21:32N 59°20' E 010°31'0 0.0
2014-Oct-19 20:32N 59°20' E 010°31'0 0.0
2014-Oct-19 19:32N 59°20' E 010°31'0 0.0
2014-Oct-19 18:32N 59°20' E 010°31'0 0.0
2014-Oct-19 17:29N 59°20' E 010°31'0 0.0
2014-Oct-19 16:32N 59°20' E 010°31'0 0.0
2014-Oct-19 15:29N 59°20' E 010°31'0 0.0
2014-Oct-19 14:32N 59°20' E 010°31'0 0.0
2014-Oct-19 13:32N 59°20' E 010°31'0 0.0
2014-Oct-19 12:32N 59°20' E 010°31'0 0.1
2014-Oct-19 11:32N 59°20' E 010°31'0 0.0
2014-Oct-19 10:32N 59°20' E 010°31'0 0.0
2014-Oct-19 09:32N 59°20' E 010°31'0 0.0
2014-Oct-19 08:32N 59°20' E 010°31'0 0.0
2014-Oct-19 07:32N 59°20' E 010°31'0 0.0
2014-Oct-19 06:32N 59°20' E 010°31'4 4.6
2014-Oct-19 05:33N 59°16' E 010°35'1211.6
2014-Oct-19 04:33N 59°05' E 010°34'1110.6
2014-Oct-19 03:33N 58°54' E 010°30'1111.3
2014-Oct-19 02:33N 58°43' E 010°24'1111.3
2014-Oct-19 01:33N 58°33' E 010°18'1610.8
2014-Oct-19 00:05N 58°20' E 009°60'4711.9
2014-Oct-18 20:05N 57°44' E 009°01'611.8
2014-Oct-18 19:32N 57°39' E 008°53'1212.4
2014-Oct-18 18:33N 57°29' E 008°39'22912.7
2014-Oct-18 00:33N 54°15' E 005°05'1312.6
2014-Oct-17 23:32N 54°05' E 004°50'1212.5
2014-Oct-17 22:33N 53°56' E 004°36'11410.1
2014-Oct-17 11:19N 52°09' E 003°32'911.5
2014-Oct-17 10:33N 52°05' E 003°44'9 9.4
2014-Oct-17 09:33N 52°02' E 003°59'5 5.0
2014-Oct-17 08:33N 51°59' E 004°05'4 3.3
2014-Oct-17 07:27N 51°56' E 004°10'0 0.0
2014-Oct-17 06:33N 51°56' E 004°10'0 0.0
2014-Oct-17 05:33N 51°56' E 004°10'0 0.0
2014-Oct-17 04:33N 51°56' E 004°10'0 0.0
2014-Oct-17 03:27N 51°56' E 004°10'0 0.0
2014-Oct-17 02:27N 51°56' E 004°10'0 0.0
2014-Oct-17 01:24N 51°56' E 004°10'0 0.0
2014-Oct-17 00:27N 51°56' E 004°10'0 0.0
2014-Oct-16 23:33N 51°56' E 004°10'0 0.0
2014-Oct-16 22:33N 51°56' E 004°10'0 0.0
2014-Oct-16 21:30N 51°56' E 004°10'0 0.0
2014-Oct-16 20:33N 51°56' E 004°10'0 0.0
2014-Oct-16 19:33N 51°56' E 004°10'0 0.0
2014-Oct-16 18:33N 51°56' E 004°10'0 0.0
2014-Oct-16 17:18N 51°56' E 004°10'0 0.0
2014-Oct-16 16:33N 51°56' E 004°10'0 0.0
2014-Oct-16 15:33N 51°56' E 004°10'0 0.0
2014-Oct-16 14:33N 51°56' E 004°10'0 0.0
2014-Oct-16 13:33N 51°56' E 004°10'0 0.0
2014-Oct-16 12:12N 51°56' E 004°10'0 0.0
2014-Oct-16 11:33N 51°56' E 004°10'0 0.0
2014-Oct-16 10:24N 51°56' E 004°10'0 0.0
2014-Oct-16 09:33N 51°56' E 004°10'0 0.0
2014-Oct-16 08:33N 51°56' E 004°10'0 0.0
2014-Oct-16 07:27N 51°56' E 004°10'0 0.0
2014-Oct-16 06:27N 51°56' E 004°10'0 0.0
2014-Oct-16 05:33N 51°56' E 004°10'0 0.0
2014-Oct-16 04:30N 51°56' E 004°10'0 0.0
2014-Oct-16 03:33N 51°56' E 004°10'0 0.0
2014-Oct-16 02:33N 51°56' E 004°10'0 0.0
2014-Oct-16 01:33N 51°56' E 004°10'0 0.0
2014-Oct-16 00:33N 51°56' E 004°10'0 0.0
2014-Oct-15 23:33N 51°56' E 004°10'0 0.0
2014-Oct-15 22:27N 51°56' E 004°10'0 0.0
2014-Oct-15 21:33N 51°56' E 004°10'0 0.0
2014-Oct-15 20:33N 51°56' E 004°10'0 0.0
2014-Oct-15 19:33N 51°56' E 004°10'0 0.0
2014-Oct-15 18:24N 51°56' E 004°10'0 0.0
2014-Oct-15 17:33N 51°56' E 004°10'0 0.3
2014-Oct-15 16:33N 51°57' E 004°10'1010.2
2014-Oct-15 15:33N 52°00' E 003°54'1211.2
2014-Oct-15 14:28N 51°56' E 003°35'4 4.0
2014-Oct-15 13:27N 51°54' E 003°30'0 0.0
2014-Oct-15 12:24N 51°54' E 003°30'0 0.0
2014-Oct-15 11:06N 51°54' E 003°31'0 0.1
2014-Oct-15 09:12N 51°54' E 003°31'0 0.0
2014-Oct-15 08:06N 51°54' E 003°31'0 0.0
2014-Oct-15 03:15N 51°54' E 003°31'0 0.0
2014-Oct-15 00:21N 51°54' E 003°30'0 0.0
2014-Oct-14 20:33N 51°54' E 003°31'0 0.0
2014-Oct-14 19:24N 51°54' E 003°31'0 0.0
2014-Oct-14 15:30N 51°54' E 003°31'8 7.5
2014-Oct-14 14:29N 51°48' E 003°22'0 0.1
2014-Oct-14 13:32N 51°48' E 003°22'0 0.1
2014-Oct-14 12:32N 51°48' E 003°22'0 0.0
2014-Oct-14 11:32N 51°48' E 003°22'0 0.1
2014-Oct-14 10:29N 51°49' E 003°22'0 0.0
2014-Oct-14 09:29N 51°49' E 003°22'0 0.1
2014-Oct-14 08:29N 51°49' E 003°22'0 0.0
2014-Oct-14 07:33N 51°49' E 003°22'0 0.0
2014-Oct-14 06:20N 51°49' E 003°22'0 0.0
2014-Oct-14 05:27N 51°49' E 003°22'0 0.0
2014-Oct-14 04:20N 51°49' E 003°22'0 0.0
2014-Oct-14 03:29N 51°49' E 003°22'0 0.0
2014-Oct-14 02:26N 51°49' E 003°22'0 0.0
2014-Oct-14 01:32N 51°49' E 003°22'0 0.1
2014-Oct-14 00:20N 51°49' E 003°21'0 0.0
2014-Oct-13 23:29N 51°49' E 003°21'0 0.1
2014-Oct-13 22:32N 51°49' E 003°22'0 0.0
2014-Oct-13 21:32N 51°49' E 003°22'0 0.0
2014-Oct-13 20:29N 51°49' E 003°22'0 0.0
2014-Oct-13 07:08N 51°49' E 003°21'0 0.0
2014-Oct-13 06:08N 51°49' E 003°22'0 0.0
2014-Oct-13 05:26N 51°48' E 003°22'0 0.0
2014-Oct-13 04:26N 51°48' E 003°22'0 0.0
2014-Oct-13 03:32N 51°48' E 003°22'0 0.2
2014-Oct-13 02:32N 51°48' E 003°21'0 0.1
2014-Oct-13 01:32N 51°48' E 003°21'0 0.0
2014-Oct-13 00:32N 51°48' E 003°21'0 0.0
2014-Oct-12 23:32N 51°48' E 003°21'0 0.0
2014-Oct-12 22:32N 51°48' E 003°21'0 0.0
2014-Oct-12 21:05N 51°48' E 003°21'0 0.0
2014-Oct-12 20:26N 51°48' E 003°21'0 0.0
2014-Oct-12 19:29N 51°48' E 003°21'0 0.0
2014-Oct-12 18:14N 51°48' E 003°21'0 0.1
2014-Oct-12 17:32N 51°48' E 003°22'0 0.0
2014-Oct-12 16:32N 51°48' E 003°22'0 0.0
2014-Oct-12 15:29N 51°48' E 003°22'0 0.0
2014-Oct-12 12:32N 51°48' E 003°21'0 0.0
2014-Oct-12 11:33N 51°48' E 003°21'0 0.0
2014-Oct-12 10:32N 51°48' E 003°21'0 0.0
2014-Oct-12 09:28N 51°48' E 003°21'0 0.0
2014-Oct-12 08:30N 51°48' E 003°21'0 0.1
2014-Oct-12 07:19N 51°48' E 003°22'0 0.0
2014-Oct-12 06:29N 51°48' E 003°22'0 0.0
2014-Oct-12 05:16N 51°48' E 003°22'0 0.0
2014-Oct-12 04:32N 51°48' E 003°22'0 0.0
2014-Oct-12 03:26N 51°48' E 003°22'0 0.0
2014-Oct-12 02:29N 51°48' E 003°22'0 0.0
2014-Oct-12 01:26N 51°48' E 003°22'0 0.1
2014-Oct-12 00:25N 51°48' E 003°22'0 0.0
2014-Oct-11 23:19N 51°48' E 003°21'0 0.0
2014-Oct-11 21:19N 51°48' E 003°22'0 0.1
2014-Oct-11 20:25N 51°48' E 003°22'0 0.0
2014-Oct-11 19:08N 51°48' E 003°22'0 0.0
2014-Oct-11 18:29N 51°48' E 003°22'0 0.0
2014-Oct-11 15:11N 51°48' E 003°22'0 0.0
2014-Oct-11 14:14N 51°48' E 003°22'0 0.0
2014-Oct-11 13:28N 51°48' E 003°22'0 0.1
2014-Oct-11 12:19N 51°48' E 003°22'0 0.0
2014-Oct-11 11:31N 51°48' E 003°21'0 0.0
2014-Oct-11 10:31N 51°48' E 003°21'0 0.0
2014-Oct-11 09:31N 51°48' E 003°21'0 0.4
2014-Oct-11 08:33N 51°48' E 003°21'1110.9
2014-Oct-11 07:34N 51°47' E 003°04'1712.3
2014-Oct-11 06:13N 51°46' E 002°37'913.2
2014-Oct-11 05:33N 51°39' E 002°28'1413.7
2014-Oct-11 04:33N 51°29' E 002°14'1313.1
2014-Oct-11 03:34N 51°17' E 002°07'1414.1
2014-Oct-11 02:33N 51°08' E 001°48'1616.1
2014-Oct-11 01:33N 50°58' E 001°29'3314.1
2014-Oct-10 23:13N 50°31' E 000°59'914.3
2014-Oct-10 22:33N 50°28' E 000°45'1514.7
2014-Oct-10 21:33N 50°24' E 000°22'  
Track history (hours):
 
Tides and Currents Weather Stations Pressure Air Temp Water Temp Dewpoint Dewpoint Depression Visibility Wind Speed Wind Dir Waves Ship Positions

Mississippi Star

Last reported at 2014-Oct-20 20:33 UTC. Time now 2014-Oct-20 21:16 UTC.
Position N 58°48' E 010°33'.

Length 128 m; draft 5.8 m.

Type: Ship. MMSI: 248621000.

Date/timePositionNaut miles runAvg speedWind from/ knotsBaromVisibWave heightAir tempDewpointWater temp
2014-Oct-20 20:33N 58°48' E 010°33'1211.8
2014-Oct-20 19:33N 58°60' E 010°35'1110.5
2014-Oct-20 18:33N 59°10' E 010°37'10 9.8
2014-Oct-20 17:33N 59°20' E 010°31'0 0.0
2014-Oct-20 16:33N 59°20' E 010°31'0 0.0
2014-Oct-20 15:33N 59°20' E 010°31'0 0.0
2014-Oct-20 14:30N 59°20' E 010°31'0 0.0
2014-Oct-20 13:33N 59°20' E 010°31'0 0.0
2014-Oct-20 04:33N 59°20' E 010°31'0 0.0
2014-Oct-20 03:30N 59°20' E 010°31'0 0.0
2014-Oct-20 02:33N 59°20' E 010°31'0 0.0
2014-Oct-20 01:30N 59°20' E 010°31'0 0.0
2014-Oct-20 00:33N 59°20' E 010°31'0 0.0
2014-Oct-19 23:22N 59°20' E 010°31'1 0.8
2014-Oct-19 22:32N 59°20' E 010°31'0 0.0
2014-Oct-19 21:32N 59°20' E 010°31'0 0.0
2014-Oct-19 20:32N 59°20' E 010°31'0 0.0
2014-Oct-19 19:32N 59°20' E 010°31'0 0.0
2014-Oct-19 18:32N 59°20' E 010°31'0 0.0
2014-Oct-19 17:29N 59°20' E 010°31'0 0.0
2014-Oct-19 16:32N 59°20' E 010°31'0 0.0
2014-Oct-19 15:29N 59°20' E 010°31'0 0.0
2014-Oct-19 14:32N 59°20' E 010°31'0 0.0
2014-Oct-19 13:32N 59°20' E 010°31'0 0.0
2014-Oct-19 12:32N 59°20' E 010°31'0 0.1
2014-Oct-19 11:32N 59°20' E 010°31'0 0.0
2014-Oct-19 10:32N 59°20' E 010°31'0 0.0
2014-Oct-19 09:32N 59°20' E 010°31'0 0.0
2014-Oct-19 08:32N 59°20' E 010°31'0 0.0
2014-Oct-19 07:32N 59°20' E 010°31'0 0.0
2014-Oct-19 06:32N 59°20' E 010°31'4 4.6
2014-Oct-19 05:33N 59°16' E 010°35'1211.6
2014-Oct-19 04:33N 59°05' E 010°34'1110.6
2014-Oct-19 03:33N 58°54' E 010°30'1111.3
2014-Oct-19 02:33N 58°43' E 010°24'1111.3
2014-Oct-19 01:33N 58°33' E 010°18'1610.8
2014-Oct-19 00:05N 58°20' E 009°60'4711.9
2014-Oct-18 20:05N 57°44' E 009°01'611.8
2014-Oct-18 19:32N 57°39' E 008°53'1212.4
2014-Oct-18 18:33N 57°29' E 008°39'22912.7
2014-Oct-18 00:33N 54°15' E 005°05'1312.6
2014-Oct-17 23:32N 54°05' E 004°50'1212.5
2014-Oct-17 22:33N 53°56' E 004°36'11410.1
2014-Oct-17 11:19N 52°09' E 003°32'911.5
2014-Oct-17 10:33N 52°05' E 003°44'9 9.4
2014-Oct-17 09:33N 52°02' E 003°59'5 5.0
2014-Oct-17 08:33N 51°59' E 004°05'4 3.3
2014-Oct-17 07:27N 51°56' E 004°10'0 0.0
2014-Oct-17 06:33N 51°56' E 004°10'0 0.0
2014-Oct-17 05:33N 51°56' E 004°10'0 0.0
2014-Oct-17 04:33N 51°56' E 004°10'0 0.0
2014-Oct-17 03:27N 51°56' E 004°10'0 0.0
2014-Oct-17 02:27N 51°56' E 004°10'0 0.0
2014-Oct-17 01:24N 51°56' E 004°10'0 0.0
2014-Oct-17 00:27N 51°56' E 004°10'0 0.0
2014-Oct-16 23:33N 51°56' E 004°10'0 0.0
2014-Oct-16 22:33N 51°56' E 004°10'0 0.0
2014-Oct-16 21:30N 51°56' E 004°10'0 0.0
2014-Oct-16 20:33N 51°56' E 004°10'0 0.0
2014-Oct-16 19:33N 51°56' E 004°10'0 0.0
2014-Oct-16 18:33N 51°56' E 004°10'0 0.0
2014-Oct-16 17:18N 51°56' E 004°10'0 0.0
2014-Oct-16 16:33N 51°56' E 004°10'0 0.0
2014-Oct-16 15:33N 51°56' E 004°10'0 0.0
2014-Oct-16 14:33N 51°56' E 004°10'0 0.0
2014-Oct-16 13:33N 51°56' E 004°10'0 0.0
2014-Oct-16 12:12N 51°56' E 004°10'0 0.0
2014-Oct-16 11:33N 51°56' E 004°10'0 0.0
2014-Oct-16 10:24N 51°56' E 004°10'0 0.0
2014-Oct-16 09:33N 51°56' E 004°10'0 0.0
2014-Oct-16 08:33N 51°56' E 004°10'0 0.0
2014-Oct-16 07:27N 51°56' E 004°10'0 0.0
2014-Oct-16 06:27N 51°56' E 004°10'0 0.0
2014-Oct-16 05:33N 51°56' E 004°10'0 0.0
2014-Oct-16 04:30N 51°56' E 004°10'0 0.0
2014-Oct-16 03:33N 51°56' E 004°10'0 0.0
2014-Oct-16 02:33N 51°56' E 004°10'0 0.0
2014-Oct-16 01:33N 51°56' E 004°10'0 0.0
2014-Oct-16 00:33N 51°56' E 004°10'0 0.0
2014-Oct-15 23:33N 51°56' E 004°10'0 0.0
2014-Oct-15 22:27N 51°56' E 004°10'0 0.0
2014-Oct-15 21:33N 51°56' E 004°10'0 0.0
2014-Oct-15 20:33N 51°56' E 004°10'0 0.0
2014-Oct-15 19:33N 51°56' E 004°10'0 0.0
2014-Oct-15 18:24N 51°56' E 004°10'0 0.0
2014-Oct-15 17:33N 51°56' E 004°10'0 0.3
2014-Oct-15 16:33N 51°57' E 004°10'1010.2
2014-Oct-15 15:33N 52°00' E 003°54'1211.2
2014-Oct-15 14:28N 51°56' E 003°35'4 4.0
2014-Oct-15 13:27N 51°54' E 003°30'0 0.0
2014-Oct-15 12:24N 51°54' E 003°30'0 0.0
2014-Oct-15 11:06N 51°54' E 003°31'0 0.1
2014-Oct-15 09:12N 51°54' E 003°31'0 0.0
2014-Oct-15 08:06N 51°54' E 003°31'0 0.0
2014-Oct-15 03:15N 51°54' E 003°31'0 0.0
2014-Oct-15 00:21N 51°54' E 003°30'0 0.0
2014-Oct-14 20:33N 51°54' E 003°31'0 0.0
2014-Oct-14 19:24N 51°54' E 003°31'0 0.0
2014-Oct-14 15:30N 51°54' E 003°31'8 7.5
2014-Oct-14 14:29N 51°48' E 003°22'0 0.1
2014-Oct-14 13:32N 51°48' E 003°22'0 0.1
2014-Oct-14 12:32N 51°48' E 003°22'0 0.0
2014-Oct-14 11:32N 51°48' E 003°22'0 0.1
2014-Oct-14 10:29N 51°49' E 003°22'0 0.0
2014-Oct-14 09:29N 51°49' E 003°22'0 0.1
2014-Oct-14 08:29N 51°49' E 003°22'0 0.0
2014-Oct-14 07:33N 51°49' E 003°22'0 0.0
2014-Oct-14 06:20N 51°49' E 003°22'0 0.0
2014-Oct-14 05:27N 51°49' E 003°22'0 0.0
2014-Oct-14 04:20N 51°49' E 003°22'0 0.0
2014-Oct-14 03:29N 51°49' E 003°22'0 0.0
2014-Oct-14 02:26N 51°49' E 003°22'0 0.0
2014-Oct-14 01:32N 51°49' E 003°22'0 0.1
2014-Oct-14 00:20N 51°49' E 003°21'0 0.0
2014-Oct-13 23:29N 51°49' E 003°21'0 0.1
2014-Oct-13 22:32N 51°49' E 003°22'0 0.0
2014-Oct-13 21:32N 51°49' E 003°22'0 0.0
2014-Oct-13 20:29N 51°49' E 003°22'0 0.0
2014-Oct-13 07:08N 51°49' E 003°21'0 0.0
2014-Oct-13 06:08N 51°49' E 003°22'0 0.0
2014-Oct-13 05:26N 51°48' E 003°22'0 0.0
2014-Oct-13 04:26N 51°48' E 003°22'0 0.0
2014-Oct-13 03:32N 51°48' E 003°22'0 0.2
2014-Oct-13 02:32N 51°48' E 003°21'0 0.1
2014-Oct-13 01:32N 51°48' E 003°21'0 0.0
2014-Oct-13 00:32N 51°48' E 003°21'0 0.0
2014-Oct-12 23:32N 51°48' E 003°21'0 0.0
2014-Oct-12 22:32N 51°48' E 003°21'0 0.0
2014-Oct-12 21:05N 51°48' E 003°21'0 0.0
2014-Oct-12 20:26N 51°48' E 003°21'0 0.0
2014-Oct-12 19:29N 51°48' E 003°21'0 0.0
2014-Oct-12 18:14N 51°48' E 003°21'0 0.1
2014-Oct-12 17:32N 51°48' E 003°22'0 0.0
2014-Oct-12 16:32N 51°48' E 003°22'0 0.0
2014-Oct-12 15:29N 51°48' E 003°22'0 0.0
2014-Oct-12 12:32N 51°48' E 003°21'0 0.0
2014-Oct-12 11:33N 51°48' E 003°21'0 0.0
2014-Oct-12 10:32N 51°48' E 003°21'0 0.0
2014-Oct-12 09:28N 51°48' E 003°21'0 0.0
2014-Oct-12 08:30N 51°48' E 003°21'0 0.1
2014-Oct-12 07:19N 51°48' E 003°22'0 0.0
2014-Oct-12 06:29N 51°48' E 003°22'0 0.0
2014-Oct-12 05:16N 51°48' E 003°22'0 0.0
2014-Oct-12 04:32N 51°48' E 003°22'0 0.0
2014-Oct-12 03:26N 51°48' E 003°22'0 0.0
2014-Oct-12 02:29N 51°48' E 003°22'0 0.0
2014-Oct-12 01:26N 51°48' E 003°22'0 0.1
2014-Oct-12 00:25N 51°48' E 003°22'0 0.0
2014-Oct-11 23:19N 51°48' E 003°21'0 0.0
2014-Oct-11 21:19N 51°48' E 003°22'0 0.1
2014-Oct-11 20:25N 51°48' E 003°22'0 0.0
2014-Oct-11 19:08N 51°48' E 003°22'0 0.0
2014-Oct-11 18:29N 51°48' E 003°22'0 0.0
2014-Oct-11 15:11N 51°48' E 003°22'0 0.0
2014-Oct-11 14:14N 51°48' E 003°22'0 0.0
2014-Oct-11 13:28N 51°48' E 003°22'0 0.1
2014-Oct-11 12:19N 51°48' E 003°22'0 0.0
2014-Oct-11 11:31N 51°48' E 003°21'0 0.0
2014-Oct-11 10:31N 51°48' E 003°21'0 0.0
2014-Oct-11 09:31N 51°48' E 003°21'0 0.4
2014-Oct-11 08:33N 51°48' E 003°21'1110.9
2014-Oct-11 07:34N 51°47' E 003°04'1712.3
2014-Oct-11 06:13N 51°46' E 002°37'913.2
2014-Oct-11 05:33N 51°39' E 002°28'1413.7
2014-Oct-11 04:33N 51°29' E 002°14'1313.1
2014-Oct-11 03:34N 51°17' E 002°07'1414.1
2014-Oct-11 02:33N 51°08' E 001°48'1616.1
2014-Oct-11 01:33N 50°58' E 001°29'3314.1
2014-Oct-10 23:13N 50°31' E 000°59'914.3
2014-Oct-10 22:33N 50°28' E 000°45'1514.7
2014-Oct-10 21:33N 50°24' E 000°22'  

Dump ship's entire track history